sensor_id;sensor_type;location;lat;lon;timestamp;P1;durP1;ratioP1;P2;durP2;ratioP2
65753;SDS011;69207;47.502;18.940;2023-10-13T00:00:53;10.48;;;4.47;;
65753;SDS011;69207;47.502;18.940;2023-10-13T00:02:00;8.52;;;4.78;;
65753;SDS011;69207;47.502;18.940;2023-10-13T00:03:08;9.50;;;5.07;;
65753;SDS011;69207;47.502;18.940;2023-10-13T00:04:19;8.80;;;5.07;;
65753;SDS011;69207;47.502;18.940;2023-10-13T00:05:29;11.48;;;5.25;;
65753;SDS011;69207;47.502;18.940;2023-10-13T00:06:33;8.38;;;4.93;;
65753;SDS011;69207;47.502;18.940;2023-10-13T00:07:36;11.50;;;4.90;;
65753;SDS011;69207;47.502;18.940;2023-10-13T00:08:39;10.20;;;4.78;;
65753;SDS011;69207;47.502;18.940;2023-10-13T00:09:42;9.00;;;4.62;;
65753;SDS011;69207;47.502;18.940;2023-10-13T00:10:46;7.97;;;4.15;;
65753;SDS011;69207;47.502;18.940;2023-10-13T00:11:50;9.73;;;5.05;;
65753;SDS011;69207;47.502;18.940;2023-10-13T00:12:59;10.13;;;4.93;;
65753;SDS011;69207;47.502;18.940;2023-10-13T00:14:12;12.60;;;5.28;;
65753;SDS011;69207;47.502;18.940;2023-10-13T00:15:24;8.18;;;4.87;;
65753;SDS011;69207;47.502;18.940;2023-10-13T00:16:30;11.60;;;4.87;;
65753;SDS011;69207;47.502;18.940;2023-10-13T00:17:34;9.23;;;4.75;;
65753;SDS011;69207;47.502;18.940;2023-10-13T00:18:41;10.85;;;4.95;;
65753;SDS011;69207;47.502;18.940;2023-10-13T00:19:44;8.70;;;5.05;;
65753;SDS011;69207;47.502;18.940;2023-10-13T00:20:48;9.60;;;4.95;;
65753;SDS011;69207;47.502;18.940;2023-10-13T00:21:53;11.20;;;5.07;;
65753;SDS011;69207;47.502;18.940;2023-10-13T00:22:58;10.63;;;4.72;;
65753;SDS011;69207;47.502;18.940;2023-10-13T00:24:02;8.55;;;4.75;;
65753;SDS011;69207;47.502;18.940;2023-10-13T00:25:09;10.13;;;4.07;;
65753;SDS011;69207;47.502;18.940;2023-10-13T00:26:23;11.48;;;5.18;;
65753;SDS011;69207;47.502;18.940;2023-10-13T00:27:31;9.70;;;4.50;;
65753;SDS011;69207;47.502;18.940;2023-10-13T00:28:34;7.65;;;4.32;;
65753;SDS011;69207;47.502;18.940;2023-10-13T00:30:00;8.10;;;4.43;;
65753;SDS011;69207;47.502;18.940;2023-10-13T00:31:25;7.10;;;4.35;;
65753;SDS011;69207;47.502;18.940;2023-10-13T00:32:39;7.65;;;4.35;;
65753;SDS011;69207;47.502;18.940;2023-10-13T00:33:45;9.77;;;5.10;;
65753;SDS011;69207;47.502;18.940;2023-10-13T00:34:48;17.62;;;5.53;;
65753;SDS011;69207;47.502;18.940;2023-10-13T00:35:51;9.50;;;4.68;;
65753;SDS011;69207;47.502;18.940;2023-10-13T00:36:55;9.77;;;4.62;;
65753;SDS011;69207;47.502;18.940;2023-10-13T00:38:19;12.88;;;4.55;;
65753;SDS011;69207;47.502;18.940;2023-10-13T00:39:22;11.15;;;4.70;;
65753;SDS011;69207;47.502;18.940;2023-10-13T00:40:26;11.75;;;5.03;;
65753;SDS011;69207;47.502;18.940;2023-10-13T00:41:35;9.07;;;5.93;;
65753;SDS011;69207;47.502;18.940;2023-10-13T00:43:01;11.20;;;4.70;;
65753;SDS011;69207;47.502;18.940;2023-10-13T00:44:22;8.60;;;4.30;;
65753;SDS011;69207;47.502;18.940;2023-10-13T00:45:40;9.68;;;4.50;;
65753;SDS011;69207;47.502;18.940;2023-10-13T00:46:45;9.85;;;4.70;;
65753;SDS011;69207;47.502;18.940;2023-10-13T00:47:47;10.80;;;5.15;;
65753;SDS011;69207;47.502;18.940;2023-10-13T00:50:04;13.73;;;4.87;;
65753;SDS011;69207;47.502;18.940;2023-10-13T00:51:10;13.48;;;4.78;;
65753;SDS011;69207;47.502;18.940;2023-10-13T00:52:35;11.10;;;4.47;;
65753;SDS011;69207;47.502;18.940;2023-10-13T00:53:39;10.20;;;5.60;;
65753;SDS011;69207;47.502;18.940;2023-10-13T00:54:44;11.93;;;4.65;;
65753;SDS011;69207;47.502;18.940;2023-10-13T00:55:48;12.75;;;5.40;;
65753;SDS011;69207;47.502;18.940;2023-10-13T00:56:51;9.07;;;4.87;;
65753;SDS011;69207;47.502;18.940;2023-10-13T00:58:07;9.00;;;4.43;;
65753;SDS011;69207;47.502;18.940;2023-10-13T00:59:15;10.68;;;4.93;;
65753;SDS011;69207;47.502;18.940;2023-10-13T01:00:18;7.87;;;4.65;;
65753;SDS011;69207;47.502;18.940;2023-10-13T01:01:21;11.45;;;5.05;;
65753;SDS011;69207;47.502;18.940;2023-10-13T01:02:24;9.65;;;4.78;;
65753;SDS011;69207;47.502;18.940;2023-10-13T01:03:40;10.82;;;4.72;;
65753;SDS011;69207;47.502;18.940;2023-10-13T01:04:43;14.57;;;5.68;;
65753;SDS011;69207;47.502;18.940;2023-10-13T01:05:49;11.80;;;5.35;;
65753;SDS011;69207;47.502;18.940;2023-10-13T01:06:56;8.10;;;4.62;;
65753;SDS011;69207;47.502;18.940;2023-10-13T01:08:00;11.07;;;5.03;;
65753;SDS011;69207;47.502;18.940;2023-10-13T01:09:04;11.07;;;5.47;;
65753;SDS011;69207;47.502;18.940;2023-10-13T01:10:22;9.38;;;4.12;;
65753;SDS011;69207;47.502;18.940;2023-10-13T01:11:35;12.37;;;4.72;;
65753;SDS011;69207;47.502;18.940;2023-10-13T01:12:38;13.52;;;4.90;;
65753;SDS011;69207;47.502;18.940;2023-10-13T01:13:41;9.10;;;4.72;;
65753;SDS011;69207;47.502;18.940;2023-10-13T01:14:45;9.18;;;5.07;;
65753;SDS011;69207;47.502;18.940;2023-10-13T01:15:48;11.77;;;4.93;;
65753;SDS011;69207;47.502;18.940;2023-10-13T01:16:51;7.70;;;4.37;;
65753;SDS011;69207;47.502;18.940;2023-10-13T01:18:07;10.98;;;5.50;;
65753;SDS011;69207;47.502;18.940;2023-10-13T01:19:16;10.93;;;5.57;;
65753;SDS011;69207;47.502;18.940;2023-10-13T01:20:22;11.90;;;4.57;;
65753;SDS011;69207;47.502;18.940;2023-10-13T01:21:28;10.02;;;4.35;;
65753;SDS011;69207;47.502;18.940;2023-10-13T01:22:32;6.55;;;4.20;;
65753;SDS011;69207;47.502;18.940;2023-10-13T01:23:35;13.60;;;5.03;;
65753;SDS011;69207;47.502;18.940;2023-10-13T01:24:41;12.18;;;4.95;;
65753;SDS011;69207;47.502;18.940;2023-10-13T01:25:44;7.75;;;4.60;;
65753;SDS011;69207;47.502;18.940;2023-10-13T01:26:48;9.70;;;5.07;;
65753;SDS011;69207;47.502;18.940;2023-10-13T01:27:54;9.48;;;5.57;;
65753;SDS011;69207;47.502;18.940;2023-10-13T01:28:57;10.38;;;4.47;;
65753;SDS011;69207;47.502;18.940;2023-10-13T01:30:00;11.98;;;4.82;;
65753;SDS011;69207;47.502;18.940;2023-10-13T01:31:12;9.50;;;5.03;;
65753;SDS011;69207;47.502;18.940;2023-10-13T01:32:25;11.60;;;4.75;;
65753;SDS011;69207;47.502;18.940;2023-10-13T01:33:28;9.75;;;4.82;;
65753;SDS011;69207;47.502;18.940;2023-10-13T01:34:31;10.63;;;4.65;;
65753;SDS011;69207;47.502;18.940;2023-10-13T01:35:37;11.82;;;4.85;;
65753;SDS011;69207;47.502;18.940;2023-10-13T01:37:00;11.30;;;4.57;;
65753;SDS011;69207;47.502;18.940;2023-10-13T01:38:08;9.30;;;4.45;;
65753;SDS011;69207;47.502;18.940;2023-10-13T01:39:12;11.45;;;5.12;;
65753;SDS011;69207;47.502;18.940;2023-10-13T01:40:19;11.95;;;4.60;;
65753;SDS011;69207;47.502;18.940;2023-10-13T01:41:23;12.25;;;4.97;;
65753;SDS011;69207;47.502;18.940;2023-10-13T01:42:26;13.90;;;5.37;;
65753;SDS011;69207;47.502;18.940;2023-10-13T01:43:33;12.10;;;4.95;;
65753;SDS011;69207;47.502;18.940;2023-10-13T01:44:37;9.13;;;4.85;;
65753;SDS011;69207;47.502;18.940;2023-10-13T01:45:40;9.35;;;4.80;;
65753;SDS011;69207;47.502;18.940;2023-10-13T01:46:52;14.32;;;4.70;;
65753;SDS011;69207;47.502;18.940;2023-10-13T01:47:55;14.30;;;5.30;;
65753;SDS011;69207;47.502;18.940;2023-10-13T01:48:59;13.88;;;4.70;;
65753;SDS011;69207;47.502;18.940;2023-10-13T01:50:02;8.90;;;4.40;;
65753;SDS011;69207;47.502;18.940;2023-10-13T01:51:23;12.43;;;5.07;;
65753;SDS011;69207;47.502;18.940;2023-10-13T01:52:27;10.40;;;4.80;;
65753;SDS011;69207;47.502;18.940;2023-10-13T01:53:32;12.40;;;5.32;;
65753;SDS011;69207;47.502;18.940;2023-10-13T01:54:35;10.25;;;5.18;;
65753;SDS011;69207;47.502;18.940;2023-10-13T01:55:41;10.60;;;4.72;;
65753;SDS011;69207;47.502;18.940;2023-10-13T01:56:47;10.35;;;4.60;;
65753;SDS011;69207;47.502;18.940;2023-10-13T01:57:51;10.38;;;4.57;;
65753;SDS011;69207;47.502;18.940;2023-10-13T01:58:54;11.65;;;4.75;;
65753;SDS011;69207;47.502;18.940;2023-10-13T01:59:57;8.70;;;5.37;;
65753;SDS011;69207;47.502;18.940;2023-10-13T02:01:07;11.57;;;5.62;;
65753;SDS011;69207;47.502;18.940;2023-10-13T02:02:12;7.87;;;4.55;;
65753;SDS011;69207;47.502;18.940;2023-10-13T02:03:15;19.17;;;5.37;;
65753;SDS011;69207;47.502;18.940;2023-10-13T02:04:19;11.98;;;5.28;;
65753;SDS011;69207;47.502;18.940;2023-10-13T02:05:24;15.25;;;5.05;;
65753;SDS011;69207;47.502;18.940;2023-10-13T02:06:36;16.77;;;5.03;;
65753;SDS011;69207;47.502;18.940;2023-10-13T02:07:40;16.75;;;5.05;;
65753;SDS011;69207;47.502;18.940;2023-10-13T02:08:48;10.23;;;4.87;;
65753;SDS011;69207;47.502;18.940;2023-10-13T02:09:59;9.27;;;4.78;;
65753;SDS011;69207;47.502;18.940;2023-10-13T02:11:08;13.25;;;4.80;;
65753;SDS011;69207;47.502;18.940;2023-10-13T02:12:12;12.95;;;5.28;;
65753;SDS011;69207;47.502;18.940;2023-10-13T02:13:15;8.73;;;5.22;;
65753;SDS011;69207;47.502;18.940;2023-10-13T02:14:20;11.40;;;4.57;;
65753;SDS011;69207;47.502;18.940;2023-10-13T02:15:28;9.23;;;4.70;;
65753;SDS011;69207;47.502;18.940;2023-10-13T02:16:37;10.75;;;6.03;;
65753;SDS011;69207;47.502;18.940;2023-10-13T02:17:42;10.88;;;4.82;;
65753;SDS011;69207;47.502;18.940;2023-10-13T02:18:45;8.57;;;4.80;;
65753;SDS011;69207;47.502;18.940;2023-10-13T02:19:54;8.63;;;4.75;;
65753;SDS011;69207;47.502;18.940;2023-10-13T02:21:01;17.00;;;5.03;;
65753;SDS011;69207;47.502;18.940;2023-10-13T02:22:15;10.73;;;4.87;;
65753;SDS011;69207;47.502;18.940;2023-10-13T02:23:30;11.93;;;5.07;;
65753;SDS011;69207;47.502;18.940;2023-10-13T02:24:34;11.43;;;4.78;;
65753;SDS011;69207;47.502;18.940;2023-10-13T02:25:42;11.52;;;4.95;;
65753;SDS011;69207;47.502;18.940;2023-10-13T02:26:45;12.85;;;4.72;;
65753;SDS011;69207;47.502;18.940;2023-10-13T02:27:48;12.77;;;5.57;;
65753;SDS011;69207;47.502;18.940;2023-10-13T02:29:01;15.23;;;5.12;;
65753;SDS011;69207;47.502;18.940;2023-10-13T02:30:10;13.32;;;4.70;;
65753;SDS011;69207;47.502;18.940;2023-10-13T02:31:17;12.57;;;4.90;;
65753;SDS011;69207;47.502;18.940;2023-10-13T02:32:22;10.98;;;4.80;;
65753;SDS011;69207;47.502;18.940;2023-10-13T02:33:25;9.40;;;5.18;;
65753;SDS011;69207;47.502;18.940;2023-10-13T02:34:34;11.20;;;5.00;;
65753;SDS011;69207;47.502;18.940;2023-10-13T02:35:38;6.72;;;4.50;;
65753;SDS011;69207;47.502;18.940;2023-10-13T02:36:45;14.93;;;4.70;;
65753;SDS011;69207;47.502;18.940;2023-10-13T02:37:51;10.00;;;4.45;;
65753;SDS011;69207;47.502;18.940;2023-10-13T02:38:58;8.18;;;4.70;;
65753;SDS011;69207;47.502;18.940;2023-10-13T02:40:01;9.60;;;5.10;;
65753;SDS011;69207;47.502;18.940;2023-10-13T02:41:12;9.50;;;4.60;;
65753;SDS011;69207;47.502;18.940;2023-10-13T02:42:27;14.73;;;4.60;;
65753;SDS011;69207;47.502;18.940;2023-10-13T02:43:32;9.10;;;5.03;;
65753;SDS011;69207;47.502;18.940;2023-10-13T02:44:39;17.40;;;5.35;;
65753;SDS011;69207;47.502;18.940;2023-10-13T02:45:51;11.38;;;5.00;;
65753;SDS011;69207;47.502;18.940;2023-10-13T02:47:00;10.40;;;5.35;;
65753;SDS011;69207;47.502;18.940;2023-10-13T02:48:04;9.77;;;5.05;;
65753;SDS011;69207;47.502;18.940;2023-10-13T02:49:16;10.02;;;4.87;;
65753;SDS011;69207;47.502;18.940;2023-10-13T02:50:22;11.77;;;4.68;;
65753;SDS011;69207;47.502;18.940;2023-10-13T02:51:27;10.93;;;4.75;;
65753;SDS011;69207;47.502;18.940;2023-10-13T02:52:39;9.55;;;4.70;;
65753;SDS011;69207;47.502;18.940;2023-10-13T02:53:44;8.00;;;4.30;;
65753;SDS011;69207;47.502;18.940;2023-10-13T02:54:51;11.45;;;4.72;;
65753;SDS011;69207;47.502;18.940;2023-10-13T02:55:55;11.18;;;3.97;;
65753;SDS011;69207;47.502;18.940;2023-10-13T02:57:01;13.73;;;4.53;;
65753;SDS011;69207;47.502;18.940;2023-10-13T02:58:06;6.90;;;4.50;;
65753;SDS011;69207;47.502;18.940;2023-10-13T02:59:11;10.13;;;4.25;;
65753;SDS011;69207;47.502;18.940;2023-10-13T03:00:14;10.38;;;4.40;;
65753;SDS011;69207;47.502;18.940;2023-10-13T03:01:19;11.48;;;4.30;;
65753;SDS011;69207;47.502;18.940;2023-10-13T03:02:23;8.95;;;4.07;;
65753;SDS011;69207;47.502;18.940;2023-10-13T03:03:31;8.93;;;3.67;;
65753;SDS011;69207;47.502;18.940;2023-10-13T03:04:34;10.80;;;3.92;;
65753;SDS011;69207;47.502;18.940;2023-10-13T03:05:41;8.63;;;3.95;;
65753;SDS011;69207;47.502;18.940;2023-10-13T03:06:45;9.65;;;3.58;;
65753;SDS011;69207;47.502;18.940;2023-10-13T03:07:50;15.10;;;3.87;;
65753;SDS011;69207;47.502;18.940;2023-10-13T03:08:53;9.07;;;4.35;;
65753;SDS011;69207;47.502;18.940;2023-10-13T03:09:57;7.85;;;4.07;;
65753;SDS011;69207;47.502;18.940;2023-10-13T03:11:03;8.85;;;4.18;;
65753;SDS011;69207;47.502;18.940;2023-10-13T03:12:07;13.73;;;4.85;;
65753;SDS011;69207;47.502;18.940;2023-10-13T03:13:10;8.65;;;4.32;;
65753;SDS011;69207;47.502;18.940;2023-10-13T03:14:17;8.85;;;4.50;;
65753;SDS011;69207;47.502;18.940;2023-10-13T03:15:30;8.85;;;4.20;;
65753;SDS011;69207;47.502;18.940;2023-10-13T03:16:33;12.20;;;4.28;;
65753;SDS011;69207;47.502;18.940;2023-10-13T03:17:37;9.13;;;4.03;;
65753;SDS011;69207;47.502;18.940;2023-10-13T03:18:46;11.52;;;4.40;;
65753;SDS011;69207;47.502;18.940;2023-10-13T03:19:59;9.48;;;4.45;;
65753;SDS011;69207;47.502;18.940;2023-10-13T03:21:02;10.43;;;3.97;;
65753;SDS011;69207;47.502;18.940;2023-10-13T03:22:09;9.70;;;4.20;;
65753;SDS011;69207;47.502;18.940;2023-10-13T03:23:19;10.23;;;4.40;;
65753;SDS011;69207;47.502;18.940;2023-10-13T03:24:21;12.27;;;4.78;;
65753;SDS011;69207;47.502;18.940;2023-10-13T03:25:48;10.63;;;4.30;;
65753;SDS011;69207;47.502;18.940;2023-10-13T03:26:57;10.98;;;4.28;;
65753;SDS011;69207;47.502;18.940;2023-10-13T03:28:02;10.50;;;4.62;;
65753;SDS011;69207;47.502;18.940;2023-10-13T03:29:07;12.30;;;4.35;;
65753;SDS011;69207;47.502;18.940;2023-10-13T03:30:15;8.90;;;4.05;;
65753;SDS011;69207;47.502;18.940;2023-10-13T03:31:19;9.27;;;4.05;;
65753;SDS011;69207;47.502;18.940;2023-10-13T03:32:25;8.98;;;4.25;;
65753;SDS011;69207;47.502;18.940;2023-10-13T03:33:29;11.35;;;5.00;;
65753;SDS011;69207;47.502;18.940;2023-10-13T03:34:35;12.30;;;4.00;;
65753;SDS011;69207;47.502;18.940;2023-10-13T03:35:43;5.55;;;3.72;;
65753;SDS011;69207;47.502;18.940;2023-10-13T03:36:48;12.07;;;4.85;;
65753;SDS011;69207;47.502;18.940;2023-10-13T03:38:01;9.65;;;4.87;;
65753;SDS011;69207;47.502;18.940;2023-10-13T03:39:04;12.57;;;5.00;;
65753;SDS011;69207;47.502;18.940;2023-10-13T03:40:13;12.65;;;4.78;;
65753;SDS011;69207;47.502;18.940;2023-10-13T03:41:22;7.47;;;4.28;;
65753;SDS011;69207;47.502;18.940;2023-10-13T03:42:27;8.52;;;3.97;;
65753;SDS011;69207;47.502;18.940;2023-10-13T03:43:30;9.52;;;4.30;;
65753;SDS011;69207;47.502;18.940;2023-10-13T03:44:33;12.25;;;4.70;;
65753;SDS011;69207;47.502;18.940;2023-10-13T03:45:41;17.25;;;4.90;;
65753;SDS011;69207;47.502;18.940;2023-10-13T03:46:51;7.65;;;4.07;;
65753;SDS011;69207;47.502;18.940;2023-10-13T03:47:57;11.80;;;4.25;;
65753;SDS011;69207;47.502;18.940;2023-10-13T03:49:00;10.63;;;4.57;;
65753;SDS011;69207;47.502;18.940;2023-10-13T03:50:05;14.87;;;4.50;;
65753;SDS011;69207;47.502;18.940;2023-10-13T03:51:17;8.23;;;4.18;;
65753;SDS011;69207;47.502;18.940;2023-10-13T03:52:21;10.10;;;4.32;;
65753;SDS011;69207;47.502;18.940;2023-10-13T03:53:25;8.18;;;3.72;;
65753;SDS011;69207;47.502;18.940;2023-10-13T03:54:28;11.10;;;4.57;;
65753;SDS011;69207;47.502;18.940;2023-10-13T03:55:33;8.63;;;4.03;;
65753;SDS011;69207;47.502;18.940;2023-10-13T03:56:37;12.55;;;4.32;;
65753;SDS011;69207;47.502;18.940;2023-10-13T03:57:43;9.07;;;4.45;;
65753;SDS011;69207;47.502;18.940;2023-10-13T03:58:48;7.80;;;4.25;;
65753;SDS011;69207;47.502;18.940;2023-10-13T03:59:51;7.25;;;4.53;;
65753;SDS011;69207;47.502;18.940;2023-10-13T04:00:54;9.48;;;4.72;;
65753;SDS011;69207;47.502;18.940;2023-10-13T04:01:57;10.77;;;4.85;;
65753;SDS011;69207;47.502;18.940;2023-10-13T04:03:01;9.23;;;3.80;;
65753;SDS011;69207;47.502;18.940;2023-10-13T04:04:05;10.45;;;4.35;;
65753;SDS011;69207;47.502;18.940;2023-10-13T04:05:14;10.25;;;3.95;;
65753;SDS011;69207;47.502;18.940;2023-10-13T04:06:37;8.80;;;4.47;;
65753;SDS011;69207;47.502;18.940;2023-10-13T04:07:49;11.38;;;4.28;;
65753;SDS011;69207;47.502;18.940;2023-10-13T04:09:16;8.00;;;4.10;;
65753;SDS011;69207;47.502;18.940;2023-10-13T04:10:32;6.80;;;3.53;;
65753;SDS011;69207;47.502;18.940;2023-10-13T04:11:47;6.95;;;3.90;;
65753;SDS011;69207;47.502;18.940;2023-10-13T04:13:03;11.80;;;4.03;;
65753;SDS011;69207;47.502;18.940;2023-10-13T04:14:25;9.32;;;4.22;;
65753;SDS011;69207;47.502;18.940;2023-10-13T04:15:48;6.10;;;3.87;;
65753;SDS011;69207;47.502;18.940;2023-10-13T04:17:10;7.15;;;3.92;;
65753;SDS011;69207;47.502;18.940;2023-10-13T04:18:25;7.60;;;3.67;;
65753;SDS011;69207;47.502;18.940;2023-10-13T04:19:50;10.45;;;3.67;;
65753;SDS011;69207;47.502;18.940;2023-10-13T04:21:09;11.35;;;3.90;;
65753;SDS011;69207;47.502;18.940;2023-10-13T04:22:42;8.38;;;3.30;;
65753;SDS011;69207;47.502;18.940;2023-10-13T04:23:50;8.25;;;3.83;;
65753;SDS011;69207;47.502;18.940;2023-10-13T04:25:31;7.87;;;3.80;;
65753;SDS011;69207;47.502;18.940;2023-10-13T04:26:40;8.75;;;3.60;;
65753;SDS011;69207;47.502;18.940;2023-10-13T04:28:03;5.68;;;3.70;;
65753;SDS011;69207;47.502;18.940;2023-10-13T04:29:18;7.95;;;3.60;;
65753;SDS011;69207;47.502;18.940;2023-10-13T04:31:57;8.45;;;3.83;;
65753;SDS011;69207;47.502;18.940;2023-10-13T04:33:03;9.00;;;4.00;;
65753;SDS011;69207;47.502;18.940;2023-10-13T04:34:20;10.45;;;4.30;;
65753;SDS011;69207;47.502;18.940;2023-10-13T04:35:30;5.72;;;3.40;;
65753;SDS011;69207;47.502;18.940;2023-10-13T04:36:38;7.37;;;3.72;;
65753;SDS011;69207;47.502;18.940;2023-10-13T04:37:48;9.48;;;3.75;;
65753;SDS011;69207;47.502;18.940;2023-10-13T04:38:54;8.13;;;3.97;;
65753;SDS011;69207;47.502;18.940;2023-10-13T04:39:59;8.65;;;3.47;;
65753;SDS011;69207;47.502;18.940;2023-10-13T04:41:12;8.65;;;3.80;;
65753;SDS011;69207;47.502;18.940;2023-10-13T04:42:25;9.13;;;3.75;;
65753;SDS011;69207;47.502;18.940;2023-10-13T04:46:18;11.70;;;3.47;;
65753;SDS011;69207;47.502;18.940;2023-10-13T04:48:00;8.70;;;3.80;;
65753;SDS011;69207;47.502;18.940;2023-10-13T04:49:20;11.45;;;3.92;;
65753;SDS011;69207;47.502;18.940;2023-10-13T04:50:29;7.50;;;3.00;;
65753;SDS011;69207;47.502;18.940;2023-10-13T04:51:44;7.50;;;3.87;;
65753;SDS011;69207;47.502;18.940;2023-10-13T04:53:00;6.75;;;3.47;;
65753;SDS011;69207;47.502;18.940;2023-10-13T04:54:04;6.47;;;3.20;;
65753;SDS011;69207;47.502;18.940;2023-10-13T04:55:22;11.07;;;3.87;;
65753;SDS011;69207;47.502;18.940;2023-10-13T04:56:43;11.23;;;3.80;;
65753;SDS011;69207;47.502;18.940;2023-10-13T04:58:02;7.22;;;3.60;;
65753;SDS011;69207;47.502;18.940;2023-10-13T04:59:37;7.37;;;3.90;;
65753;SDS011;69207;47.502;18.940;2023-10-13T05:01:00;11.05;;;3.97;;
65753;SDS011;69207;47.502;18.940;2023-10-13T05:02:43;8.88;;;4.10;;
65753;SDS011;69207;47.502;18.940;2023-10-13T05:04:03;10.73;;;3.87;;
65753;SDS011;69207;47.502;18.940;2023-10-13T05:05:33;9.38;;;3.55;;
65753;SDS011;69207;47.502;18.940;2023-10-13T05:07:08;7.75;;;3.40;;
65753;SDS011;69207;47.502;18.940;2023-10-13T05:08:29;8.30;;;3.28;;
65753;SDS011;69207;47.502;18.940;2023-10-13T05:09:51;5.57;;;2.90;;
65753;SDS011;69207;47.502;18.940;2023-10-13T05:11:13;7.93;;;3.17;;
65753;SDS011;69207;47.502;18.940;2023-10-13T05:12:34;9.00;;;3.78;;
65753;SDS011;69207;47.502;18.940;2023-10-13T05:13:56;4.90;;;3.03;;
65753;SDS011;69207;47.502;18.940;2023-10-13T05:15:18;9.73;;;3.58;;
65753;SDS011;69207;47.502;18.940;2023-10-13T05:16:41;11.95;;;3.50;;
65753;SDS011;69207;47.502;18.940;2023-10-13T05:18:03;7.18;;;3.53;;
65753;SDS011;69207;47.502;18.940;2023-10-13T05:19:25;7.57;;;3.90;;
65753;SDS011;69207;47.502;18.940;2023-10-13T05:20:46;7.05;;;3.80;;
65753;SDS011;69207;47.502;18.940;2023-10-13T05:23:30;9.30;;;3.62;;
65753;SDS011;69207;47.502;18.940;2023-10-13T05:24:52;8.52;;;4.00;;
65753;SDS011;69207;47.502;18.940;2023-10-13T05:26:13;8.77;;;3.70;;
65753;SDS011;69207;47.502;18.940;2023-10-13T05:27:34;6.53;;;3.85;;
65753;SDS011;69207;47.502;18.940;2023-10-13T05:28:56;7.12;;;3.58;;
65753;SDS011;69207;47.502;18.940;2023-10-13T05:30:31;6.78;;;3.60;;
65753;SDS011;69207;47.502;18.940;2023-10-13T05:31:53;5.97;;;3.50;;
65753;SDS011;69207;47.502;18.940;2023-10-13T05:33:15;6.25;;;3.70;;
65753;SDS011;69207;47.502;18.940;2023-10-13T05:34:36;8.68;;;3.65;;
65753;SDS011;69207;47.502;18.940;2023-10-13T05:37:20;8.40;;;3.60;;
65753;SDS011;69207;47.502;18.940;2023-10-13T05:38:41;9.30;;;3.40;;
65753;SDS011;69207;47.502;18.940;2023-10-13T05:40:03;8.35;;;4.15;;
65753;SDS011;69207;47.502;18.940;2023-10-13T05:42:46;7.05;;;3.67;;
65753;SDS011;69207;47.502;18.940;2023-10-13T05:44:07;8.82;;;3.60;;
65753;SDS011;69207;47.502;18.940;2023-10-13T05:45:29;9.82;;;3.95;;
65753;SDS011;69207;47.502;18.940;2023-10-13T05:48:13;7.97;;;4.03;;
65753;SDS011;69207;47.502;18.940;2023-10-13T05:49:22;9.98;;;4.00;;
65753;SDS011;69207;47.502;18.940;2023-10-13T05:50:52;5.53;;;3.40;;
65753;SDS011;69207;47.502;18.940;2023-10-13T05:52:21;8.13;;;3.75;;
65753;SDS011;69207;47.502;18.940;2023-10-13T05:53:42;9.05;;;4.35;;
65753;SDS011;69207;47.502;18.940;2023-10-13T05:55:07;13.23;;;4.62;;
65753;SDS011;69207;47.502;18.940;2023-10-13T05:56:28;8.95;;;4.40;;
65753;SDS011;69207;47.502;18.940;2023-10-13T05:57:50;11.90;;;4.22;;
65753;SDS011;69207;47.502;18.940;2023-10-13T06:00:40;7.15;;;3.60;;
65753;SDS011;69207;47.502;18.940;2023-10-13T06:02:02;9.98;;;4.82;;
65753;SDS011;69207;47.502;18.940;2023-10-13T06:03:24;11.50;;;4.75;;
65753;SDS011;69207;47.502;18.940;2023-10-13T06:04:46;10.13;;;4.60;;
65753;SDS011;69207;47.502;18.940;2023-10-13T06:06:08;10.23;;;4.03;;
65753;SDS011;69207;47.502;18.940;2023-10-13T06:08:51;10.52;;;4.20;;
65753;SDS011;69207;47.502;18.940;2023-10-13T06:10:12;10.18;;;4.18;;
65753;SDS011;69207;47.502;18.940;2023-10-13T06:11:34;12.32;;;4.32;;
65753;SDS011;69207;47.502;18.940;2023-10-13T06:12:55;9.02;;;4.53;;
65753;SDS011;69207;47.502;18.940;2023-10-13T06:14:17;10.27;;;4.30;;
65753;SDS011;69207;47.502;18.940;2023-10-13T06:15:38;11.60;;;4.50;;
65753;SDS011;69207;47.502;18.940;2023-10-13T06:16:59;12.10;;;4.65;;
65753;SDS011;69207;47.502;18.940;2023-10-13T06:18:21;9.68;;;4.45;;
65753;SDS011;69207;47.502;18.940;2023-10-13T06:19:42;9.50;;;3.97;;
65753;SDS011;69207;47.502;18.940;2023-10-13T06:21:05;8.93;;;4.10;;
65753;SDS011;69207;47.502;18.940;2023-10-13T06:22:34;7.85;;;4.72;;
65753;SDS011;69207;47.502;18.940;2023-10-13T06:23:56;8.50;;;4.87;;
65753;SDS011;69207;47.502;18.940;2023-10-13T06:25:17;10.45;;;4.47;;
65753;SDS011;69207;47.502;18.940;2023-10-13T06:26:39;8.05;;;4.35;;
65753;SDS011;69207;47.502;18.940;2023-10-13T06:28:01;12.27;;;4.72;;
65753;SDS011;69207;47.502;18.940;2023-10-13T06:30:26;6.65;;;4.25;;
65753;SDS011;69207;47.502;18.940;2023-10-13T06:31:29;12.27;;;4.70;;
65753;SDS011;69207;47.502;18.940;2023-10-13T06:32:32;12.57;;;5.28;;
65753;SDS011;69207;47.502;18.940;2023-10-13T06:33:36;10.40;;;4.68;;
65753;SDS011;69207;47.502;18.940;2023-10-13T06:34:46;8.75;;;5.25;;
65753;SDS011;69207;47.502;18.940;2023-10-13T06:35:50;10.85;;;5.35;;
65753;SDS011;69207;47.502;18.940;2023-10-13T06:36:53;10.60;;;5.30;;
65753;SDS011;69207;47.502;18.940;2023-10-13T06:37:57;9.13;;;4.72;;
65753;SDS011;69207;47.502;18.940;2023-10-13T06:39:03;12.05;;;4.72;;
65753;SDS011;69207;47.502;18.940;2023-10-13T06:40:25;15.93;;;4.85;;
65753;SDS011;69207;47.502;18.940;2023-10-13T06:41:27;13.05;;;4.68;;
65753;SDS011;69207;47.502;18.940;2023-10-13T06:42:33;10.38;;;4.37;;
65753;SDS011;69207;47.502;18.940;2023-10-13T06:43:45;9.73;;;4.85;;
65753;SDS011;69207;47.502;18.940;2023-10-13T06:44:48;9.48;;;4.60;;
65753;SDS011;69207;47.502;18.940;2023-10-13T06:45:53;10.32;;;5.15;;
65753;SDS011;69207;47.502;18.940;2023-10-13T06:47:06;7.37;;;4.60;;
65753;SDS011;69207;47.502;18.940;2023-10-13T06:48:09;8.82;;;4.80;;
65753;SDS011;69207;47.502;18.940;2023-10-13T06:49:17;11.07;;;4.75;;
65753;SDS011;69207;47.502;18.940;2023-10-13T06:50:21;12.07;;;4.75;;
65753;SDS011;69207;47.502;18.940;2023-10-13T06:51:27;10.13;;;4.50;;
65753;SDS011;69207;47.502;18.940;2023-10-13T06:52:34;11.38;;;4.32;;
65753;SDS011;69207;47.502;18.940;2023-10-13T06:53:37;7.53;;;5.15;;
65753;SDS011;69207;47.502;18.940;2023-10-13T06:54:40;7.47;;;4.10;;
65753;SDS011;69207;47.502;18.940;2023-10-13T06:55:43;10.65;;;4.72;;
65753;SDS011;69207;47.502;18.940;2023-10-13T06:56:49;10.38;;;4.62;;
65753;SDS011;69207;47.502;18.940;2023-10-13T06:57:55;6.50;;;4.43;;
65753;SDS011;69207;47.502;18.940;2023-10-13T06:59:02;9.45;;;4.87;;
65753;SDS011;69207;47.502;18.940;2023-10-13T07:00:07;13.73;;;5.12;;
65753;SDS011;69207;47.502;18.940;2023-10-13T07:01:14;10.55;;;5.25;;
65753;SDS011;69207;47.502;18.940;2023-10-13T07:02:24;10.15;;;4.53;;
65753;SDS011;69207;47.502;18.940;2023-10-13T07:03:37;6.53;;;4.62;;
65753;SDS011;69207;47.502;18.940;2023-10-13T07:04:40;12.30;;;4.18;;
65753;SDS011;69207;47.502;18.940;2023-10-13T07:05:43;11.15;;;4.75;;
65753;SDS011;69207;47.502;18.940;2023-10-13T07:06:46;7.30;;;4.40;;
65753;SDS011;69207;47.502;18.940;2023-10-13T07:07:52;10.27;;;4.55;;
65753;SDS011;69207;47.502;18.940;2023-10-13T07:09:02;9.55;;;5.30;;
65753;SDS011;69207;47.502;18.940;2023-10-13T07:10:08;10.93;;;4.78;;
65753;SDS011;69207;47.502;18.940;2023-10-13T07:11:15;6.95;;;3.92;;